Time;durP1;ratioP1;P1;durP2;ratioP2;P2;SDS_P1;SDS_P2;PMS_P1;PMS_P2;Temp;Humidity;BMP_temperature;BMP_pressure;BME280_temperature;BME280_humidity;BME280_pressure;Samples;Min_cycle;Max_cycle;Signal;HPM_P1;HPM_P2
2023/02/05 00:02:23;;;;;;;10.35;5.00;;;10.30;86.10;;;;;;6069859;23;20025;-81
2023/02/05 00:04:49;;;;;;;9.55;5.45;;;10.30;86.10;;;;;;6071415;23;20042;-81
2023/02/05 00:07:14;;;;;;;8.20;4.93;;;10.20;86.10;;;;;;6071467;23;20085;-80
2023/02/05 00:09:40;;;;;;;9.43;5.18;;;10.30;86.20;;;;;;6098937;23;20014;-81
2023/02/05 00:12:06;;;;;;;8.75;5.00;;;10.20;86.00;;;;;;6072635;23;20013;-79
2023/02/05 00:14:32;;;;;;;8.80;5.00;;;10.20;86.10;;;;;;6073976;23;20003;-79
2023/02/05 00:16:57;;;;;;;8.10;4.68;;;10.20;86.20;;;;;;6103252;23;20013;-80
2023/02/05 00:19:23;;;;;;;8.02;4.82;;;10.20;86.40;;;;;;6073507;23;20340;-81
2023/02/05 00:21:49;;;;;;;8.88;5.28;;;10.20;86.30;;;;;;6084343;23;20437;-81
2023/02/05 00:24:14;;;;;;;8.70;5.20;;;10.20;86.30;;;;;;6083291;23;20006;-77
2023/02/05 00:26:40;;;;;;;8.48;4.93;;;10.20;86.10;;;;;;6107900;23;20010;-82
2023/02/05 00:29:05;;;;;;;8.40;5.07;;;10.20;86.20;;;;;;6108101;23;20098;-80
2023/02/05 00:31:31;;;;;;;8.18;4.78;;;10.20;86.80;;;;;;6107535;23;20074;-81
2023/02/05 00:33:57;;;;;;;7.88;4.60;;;10.20;86.20;;;;;;6107002;23;20445;-80
2023/02/05 00:36:23;;;;;;;9.98;5.47;;;10.20;86.30;;;;;;6104322;23;20007;-81
2023/02/05 00:38:50;;;;;;;8.75;4.80;;;10.20;86.30;;;;;;6081474;23;20081;-80
2023/02/05 00:41:16;;;;;;;9.00;5.20;;;10.20;86.20;;;;;;6080608;23;20007;-80
2023/02/05 00:43:42;;;;;;;7.85;4.90;;;10.20;86.40;;;;;;6079049;23;20083;-81
2023/02/05 00:46:09;;;;;;;9.45;5.10;;;10.20;86.20;;;;;;6079257;23;20007;-79
2023/02/05 00:48:35;;;;;;;8.32;4.97;;;10.20;86.30;;;;;;6105312;23;20006;-79
2023/02/05 00:51:01;;;;;;;8.73;5.25;;;10.10;86.30;;;;;;6078287;23;20013;-79
2023/02/05 00:53:27;;;;;;;9.75;5.35;;;10.20;86.30;;;;;;6102276;23;20007;-80
2023/02/05 00:55:53;;;;;;;9.55;5.18;;;10.10;86.20;;;;;;6076916;23;20450;-80
2023/02/05 00:58:18;;;;;;;8.52;4.65;;;10.10;86.20;;;;;;6078038;23;20006;-81
2023/02/05 01:00:44;;;;;;;8.75;4.55;;;10.10;86.20;;;;;;6077472;23;20009;-80
2023/02/05 01:03:10;;;;;;;8.73;4.93;;;10.10;86.10;;;;;;6076013;23;20010;-81
2023/02/05 01:05:37;;;;;;;9.05;5.35;;;10.10;86.20;;;;;;6098985;23;20030;-81
2023/02/05 01:08:04;;;;;;;8.70;5.07;;;10.10;86.20;;;;;;6103274;23;20480;-81
2023/02/05 01:10:30;;;;;;;8.48;5.07;;;10.10;86.20;;;;;;6109168;23;20013;-81
2023/02/05 01:12:56;;;;;;;8.77;5.10;;;10.10;86.20;;;;;;6082906;23;20049;-80
2023/02/05 01:15:22;;;;;;;8.25;5.30;;;10.10;86.20;;;;;;6107093;23;20025;-81
2023/02/05 01:17:47;;;;;;;10.05;5.28;;;10.10;86.10;;;;;;6106836;23;20006;-80
2023/02/05 01:20:14;;;;;;;8.45;4.60;;;10.10;86.20;;;;;;6106263;23;20002;-80
2023/02/05 01:22:41;;;;;;;8.70;4.93;;;10.10;86.10;;;;;;6108500;23;20006;-81
2023/02/05 01:25:07;;;;;;;8.65;5.20;;;10.10;86.10;;;;;;6104147;23;20471;-81
2023/02/05 01:27:34;;;;;;;8.85;4.85;;;10.10;86.10;;;;;;6106204;23;20017;-81
2023/02/05 01:29:59;;;;;;;8.57;5.25;;;10.10;86.10;;;;;;6106570;23;20006;-80
2023/02/05 01:32:27;;;;;;;8.32;4.85;;;10.10;86.60;;;;;;6103771;23;20002;-80
2023/02/05 01:34:52;;;;;;;8.10;4.80;;;10.10;86.10;;;;;;6078829;23;20022;-80
2023/02/05 01:37:18;;;;;;;9.23;5.00;;;10.10;86.10;;;;;;6104470;23;20018;-80
2023/02/05 01:39:43;;;;;;;9.88;5.25;;;10.00;85.90;;;;;;6078495;23;20009;-79
2023/02/05 01:42:21;;;;;;;9.02;5.07;;;10.00;85.90;;;;;;6077719;23;19999;-79
2023/02/05 01:45:35;;;;;;;9.88;5.20;;;10.00;85.90;;;;;;6077576;23;20445;-80
2023/02/05 01:48:02;;;;;;;9.43;5.30;;;10.00;85.90;;;;;;6090323;23;20003;-79
2023/02/05 01:50:38;;;;;;;9.63;5.25;;;10.10;85.90;;;;;;6077259;23;20345;-80
2023/02/05 01:53:09;;;;;;;8.88;5.10;;;10.00;85.90;;;;;;6078184;23;20006;-80
2023/02/05 01:55:42;;;;;;;8.70;5.03;;;10.00;85.80;;;;;;6076519;23;20002;-79
2023/02/05 01:58:08;;;;;;;9.82;5.65;;;10.00;85.80;;;;;;6075712;23;20007;-81
2023/02/05 02:00:33;;;;;;;8.15;4.70;;;10.00;85.90;;;;;;6075619;23;20336;-82
2023/02/05 02:02:59;;;;;;;8.15;5.03;;;10.00;85.80;;;;;;6075949;23;20430;-79
2023/02/05 02:05:25;;;;;;;9.38;5.10;;;10.00;85.90;;;;;;6075821;23;20011;-80
2023/02/05 02:07:50;;;;;;;8.13;4.90;;;10.00;85.90;;;;;;6076550;23;20389;-80
2023/02/05 02:10:18;;;;;;;9.05;5.53;;;10.00;85.90;;;;;;6075576;23;20011;-79
2023/02/05 02:12:46;;;;;;;7.95;5.32;;;10.00;85.90;;;;;;6074582;23;20010;-79
2023/02/05 02:15:16;;;;;;;8.90;5.20;;;10.00;85.80;;;;;;6074823;23;20002;-79
2023/02/05 02:17:46;;;;;;;8.57;4.70;;;10.00;85.80;;;;;;6075033;23;20072;-79
2023/02/05 02:20:21;;;;;;;8.27;4.50;;;10.00;85.80;;;;;;6101262;23;20017;-80
2023/02/05 02:22:54;;;;;;;8.43;4.57;;;10.00;85.80;;;;;;6073938;23;20018;-79
2023/02/05 02:25:57;;;;;;;8.45;4.80;;;10.00;85.80;;;;;;6099987;23;20006;-79
2023/02/05 02:28:30;;;;;;;8.63;5.10;;;10.00;85.80;;;;;;6073262;23;20010;-79
2023/02/05 02:31:07;;;;;;;8.45;5.45;;;9.90;85.70;;;;;;6099741;23;20006;-79
2023/02/05 02:33:42;;;;;;;8.25;4.85;;;10.00;85.80;;;;;;6073943;23;20019;-80
2023/02/05 02:36:31;;;;;;;7.88;4.70;;;10.00;85.80;;;;;;6073754;23;20032;-79
2023/02/05 02:39:11;;;;;;;9.90;5.25;;;10.00;85.80;;;;;;6074265;23;20011;-81
2023/02/05 02:41:51;;;;;;;8.00;5.00;;;10.00;85.80;;;;;;6073105;23;20495;-79
2023/02/05 02:44:32;;;;;;;8.10;4.68;;;9.90;85.70;;;;;;6073241;23;20018;-80
2023/02/05 02:47:02;;;;;;;7.65;4.35;;;10.00;85.80;;;;;;6102523;23;20322;-81
2023/02/05 02:49:37;;;;;;;7.63;4.72;;;9.90;85.70;;;;;;6080349;23;20003;-77
2023/02/05 02:52:06;;;;;;;7.97;4.70;;;10.00;85.80;;;;;;6081347;23;20029;-81
2023/02/05 02:54:34;;;;;;;8.50;4.97;;;9.90;85.70;;;;;;6075617;23;20006;-79
2023/02/05 02:57:02;;;;;;;9.23;5.40;;;9.90;85.70;;;;;;6073034;23;20353;-77
2023/02/05 02:59:32;;;;;;;8.52;4.72;;;9.90;85.70;;;;;;6073792;23;20003;-79
2023/02/05 03:02:01;;;;;;;7.82;4.93;;;9.90;85.70;;;;;;6077507;23;20030;-80
2023/02/05 03:04:32;;;;;;;8.45;4.97;;;10.00;85.70;;;;;;6076460;23;20013;-80
2023/02/05 03:07:10;;;;;;;8.70;5.23;;;10.00;85.80;;;;;;6100092;23;20006;-80
2023/02/05 03:10:00;;;;;;;8.07;4.70;;;9.90;85.70;;;;;;6073276;23;20002;-79
2023/02/05 03:12:26;;;;;;;9.25;4.72;;;9.90;85.70;;;;;;6072585;23;20007;-80
2023/02/05 03:14:52;;;;;;;8.93;4.97;;;9.90;85.70;;;;;;6099434;23;20492;-80
2023/02/05 03:17:19;;;;;;;7.95;4.95;;;9.90;85.70;;;;;;6071741;23;20041;-79
2023/02/05 03:19:47;;;;;;;7.45;4.55;;;9.90;85.70;;;;;;6072323;23;20007;-80
2023/02/05 03:22:13;;;;;;;8.43;4.80;;;9.90;85.70;;;;;;6095909;23;20007;-80
2023/02/05 03:24:39;;;;;;;7.53;4.50;;;9.90;85.70;;;;;;6072756;23;20003;-79
2023/02/05 03:27:05;;;;;;;7.30;4.57;;;9.90;85.70;;;;;;6072369;23;20007;-80
2023/02/05 03:29:35;;;;;;;7.75;4.85;;;9.90;85.80;;;;;;6095852;23;20404;-78
2023/02/05 03:32:27;;;;;;;7.32;4.55;;;9.90;85.70;;;;;;6073604;23;20030;-80
2023/02/05 03:35:05;;;;;;;9.05;5.10;;;9.90;85.70;;;;;;6073735;23;20365;-79
2023/02/05 03:37:49;;;;;;;7.07;4.38;;;9.90;85.80;;;;;;6084353;23;20165;-79
2023/02/05 03:40:47;;;;;;;7.53;5.03;;;9.90;85.70;;;;;;6097049;23;20014;-81
2023/02/05 03:43:18;;;;;;;6.68;4.47;;;9.90;85.70;;;;;;6093443;23;20440;-81
2023/02/05 03:45:57;;;;;;;7.05;4.47;;;9.90;85.70;;;;;;6106719;23;20006;-82
2023/02/05 03:48:41;;;;;;;8.02;4.57;;;9.90;85.70;;;;;;6106815;23;20010;-80
2023/02/05 03:51:34;;;;;;;7.07;4.57;;;9.90;85.70;;;;;;6105987;23;20013;-81
2023/02/05 03:54:15;;;;;;;7.20;4.60;;;9.90;85.70;;;;;;6107851;23;20003;-81
2023/02/05 03:56:51;;;;;;;;;;;9.90;85.70;;;;;;6106995;23;20374;-81
2023/02/05 03:59:18;;;;;;;7.63;4.97;;;9.90;85.60;;;;;;6106643;23;19984;-82
2023/02/05 04:01:45;;;;;;;8.20;5.10;;;9.90;85.60;;;;;;6104380;23;20038;-80
2023/02/05 04:04:11;;;;;;;8.80;4.78;;;9.90;85.60;;;;;;6103229;23;20002;-81
2023/02/05 04:06:36;;;;;;;7.82;4.95;;;9.90;85.60;;;;;;6103455;23;20007;-81
2023/02/05 04:09:02;;;;;;;7.65;4.50;;;9.90;85.60;;;;;;6104256;23;20037;-80
2023/02/05 04:11:27;;;;;;;7.28;4.70;;;9.90;85.60;;;;;;6103804;23;20447;-80
2023/02/05 04:13:53;;;;;;;7.82;4.63;;;9.90;85.70;;;;;;6104577;23;20003;-80
2023/02/05 04:16:18;;;;;;;7.75;5.10;;;9.90;85.70;;;;;;6103199;23;19998;-80
2023/02/05 04:18:44;;;;;;;8.15;4.72;;;9.90;85.60;;;;;;6104881;23;19999;-83
2023/02/05 04:21:09;;;;;;;7.40;4.75;;;9.90;85.60;;;;;;6101239;23;20015;-81
2023/02/05 04:23:35;;;;;;;6.90;4.68;;;9.80;85.60;;;;;;6101903;23;20064;-79
2023/02/05 04:26:00;;;;;;;7.78;4.55;;;9.90;85.60;;;;;;6103625;23;20007;-79
2023/02/05 04:28:26;;;;;;;7.72;4.90;;;9.90;85.60;;;;;;6101959;23;20061;-80
2023/02/05 04:30:51;;;;;;;7.78;4.55;;;9.90;85.60;;;;;;6106937;23;20002;-81
2023/02/05 04:33:17;;;;;;;7.18;4.78;;;9.90;85.60;;;;;;6107619;23;20319;-81
2023/02/05 04:35:42;;;;;;;7.63;4.38;;;9.90;85.60;;;;;;6107446;23;20007;-81
2023/02/05 04:38:08;;;;;;;7.18;4.75;;;9.80;85.60;;;;;;6106871;23;20022;-81
2023/02/05 04:40:33;;;;;;;8.68;4.60;;;9.90;85.60;;;;;;6106382;23;20531;-81
2023/02/05 04:42:59;;;;;;;7.20;4.72;;;9.80;85.50;;;;;;6106015;23;20006;-82
2023/02/05 04:45:29;;;;;;;7.30;4.57;;;9.90;85.60;;;;;;6105250;23;20006;-80
2023/02/05 04:47:55;;;;;;;7.72;4.85;;;9.90;85.50;;;;;;6105282;23;19998;-81
2023/02/05 04:50:21;;;;;;;7.68;4.47;;;9.90;85.50;;;;;;6104462;23;20458;-78
2023/02/05 04:52:46;;;;;;;7.35;4.45;;;9.90;85.50;;;;;;6104644;23;20002;-82
2023/02/05 04:55:12;;;;;;;7.63;4.50;;;9.80;85.40;;;;;;6105526;23;20003;-80
2023/02/05 04:57:37;;;;;;;7.25;4.82;;;9.90;85.40;;;;;;6103548;23;20464;-81
2023/02/05 05:00:03;;;;;;;7.57;4.93;;;9.90;85.50;;;;;;6103735;23;20136;-80
2023/02/05 05:02:29;;;;;;;7.10;4.68;;;9.90;85.50;;;;;;6102557;23;20524;-78
2023/02/05 05:04:54;;;;;;;7.13;4.47;;;9.90;85.50;;;;;;6102405;23;20030;-82
2023/02/05 05:07:20;;;;;;;6.60;4.45;;;9.90;85.50;;;;;;6102755;23;20002;-80
2023/02/05 05:09:45;;;;;;;7.25;4.45;;;9.80;85.40;;;;;;6102275;23;20037;-81
2023/02/05 05:12:11;;;;;;;8.50;4.80;;;9.80;85.40;;;;;;6101280;23;20003;-81
2023/02/05 05:14:36;;;;;;;8.10;4.57;;;9.90;86.00;;;;;;6100927;23;20003;-81
2023/02/05 05:17:02;;;;;;;7.57;4.70;;;9.90;85.60;;;;;;6100973;23;19999;-80
2023/02/05 05:19:27;;;;;;;6.85;4.40;;;9.80;85.50;;;;;;6099868;23;20002;-79
2023/02/05 05:21:53;;;;;;;7.15;4.50;;;9.90;85.60;;;;;;6101570;23;20026;-82
2023/02/05 05:24:18;;;;;;;6.95;4.53;;;9.80;85.50;;;;;;6106008;23;20033;-80
2023/02/05 05:26:45;;;;;;;6.93;4.45;;;9.80;85.40;;;;;;6100700;23;20448;-80
2023/02/05 05:29:11;;;;;;;6.60;4.03;;;9.80;85.40;;;;;;6100352;23;20041;-82
2023/02/05 05:31:37;;;;;;;7.45;4.47;;;9.90;85.50;;;;;;6090292;23;20062;-77
2023/02/05 05:34:02;;;;;;;7.38;4.30;;;9.80;85.40;;;;;;6089910;23;20041;-76
2023/02/05 05:36:29;;;;;;;6.63;4.35;;;9.80;85.50;;;;;;6086899;23;20344;-80
2023/02/05 05:38:54;;;;;;;6.82;4.35;;;9.80;85.40;;;;;;6062972;23;20185;-82
2023/02/05 05:44:07;;;;;;;6.80;4.35;;;9.80;85.50;;;;;;6090039;23;20017;-80
2023/02/05 05:46:33;;;;;;;7.20;4.57;;;9.80;85.40;;;;;;6065005;23;20021;-78
2023/02/05 05:49:00;;;;;;;7.47;4.78;;;9.80;85.40;;;;;;6062505;23;20006;-76
2023/02/05 05:51:27;;;;;;;8.40;5.03;;;9.80;85.30;;;;;;6088801;23;20169;-77
2023/02/05 05:53:53;;;;;;;7.95;5.10;;;9.80;85.30;;;;;;6062796;23;20006;-80
2023/02/05 05:56:19;;;;;;;6.82;4.40;;;9.80;85.40;;;;;;6064182;23;20010;-79
2023/02/05 05:58:45;;;;;;;7.50;4.60;;;9.80;85.40;;;;;;6063495;23;20282;-78
2023/02/05 06:01:12;;;;;;;9.05;5.03;;;9.80;85.40;;;;;;6088685;23;20007;-77
2023/02/05 06:03:37;;;;;;;8.45;4.95;;;9.80;85.40;;;;;;6062230;23;20011;-79
2023/02/05 06:06:06;;;;;;;7.90;5.05;;;9.80;85.40;;;;;;6062407;23;20010;-79
2023/02/05 06:08:32;;;;;;;7.35;4.35;;;9.80;85.40;;;;;;6087729;23;20013;-77
2023/02/05 06:10:58;;;;;;;7.60;4.80;;;9.90;85.40;;;;;;6063074;23;20392;-79
2023/02/05 06:13:23;;;;;;;7.20;4.70;;;9.80;85.40;;;;;;6063328;23;20072;-80
2023/02/05 06:15:49;;;;;;;7.65;4.68;;;9.80;85.30;;;;;;6062388;23;20422;-78
2023/02/05 06:18:16;;;;;;;7.15;4.55;;;9.90;85.90;;;;;;6063090;23;19998;-79
2023/02/05 06:20:41;;;;;;;9.20;5.00;;;9.80;85.20;;;;;;6063239;23;20342;-80
2023/02/05 06:23:07;;;;;;;7.60;4.50;;;9.80;85.20;;;;;;6063769;23;20052;-80
2023/02/05 06:25:32;;;;;;;7.78;4.40;;;9.80;85.30;;;;;;6064039;23;20018;-78
2023/02/05 06:27:58;;;;;;;7.70;4.82;;;9.80;85.30;;;;;;6063466;23;20015;-80
2023/02/05 06:30:23;;;;;;;7.03;4.47;;;9.80;85.20;;;;;;6063698;23;20528;-79
2023/02/05 06:32:49;;;;;;;7.07;4.50;;;9.80;85.30;;;;;;6062795;23;20056;-77
2023/02/05 06:35:14;;;;;;;9.70;5.22;;;9.80;85.30;;;;;;6061335;23;20006;-76
2023/02/05 06:37:40;;;;;;;7.15;4.50;;;9.80;85.20;;;;;;6072398;23;20017;-77
2023/02/05 06:40:06;;;;;;;7.95;4.68;;;9.90;85.30;;;;;;6084285;23;20091;-77
2023/02/05 06:42:31;;;;;;;8.38;5.10;;;9.80;85.30;;;;;;6089454;23;20044;-76
2023/02/05 06:44:57;;;;;;;8.98;4.78;;;9.80;85.30;;;;;;6095405;23;20361;-80
2023/02/05 06:47:22;;;;;;;8.23;4.97;;;9.70;85.30;;;;;;6097089;23;20384;-79
2023/02/05 06:49:48;;;;;;;7.85;5.30;;;9.80;85.30;;;;;;6101115;23;20468;-81
2023/02/05 06:52:13;;;;;;;7.85;5.25;;;9.80;85.30;;;;;;6101873;23;20105;-81
2023/02/05 06:54:39;;;;;;;8.93;5.88;;;9.80;85.30;;;;;;6099478;23;20034;-80
2023/02/05 06:57:04;;;;;;;8.60;5.80;;;9.80;85.30;;;;;;6097455;23;20007;-79
2023/02/05 06:59:30;;;;;;;8.25;5.35;;;9.80;85.30;;;;;;6096544;23;20009;-80
2023/02/05 07:01:55;;;;;;;8.70;5.60;;;9.80;85.30;;;;;;6095867;23;19998;-80
2023/02/05 07:04:21;;;;;;;8.63;5.78;;;9.80;85.30;;;;;;6086549;23;20011;-79
2023/02/05 07:06:46;;;;;;;7.97;5.50;;;9.80;85.20;;;;;;6089776;23;20006;-75
2023/02/05 07:09:12;;;;;;;7.85;5.10;;;9.80;85.30;;;;;;6090125;23;19999;-77
2023/02/05 07:11:37;;;;;;;7.82;5.20;;;9.80;85.30;;;;;;6087731;23;20002;-77
2023/02/05 07:14:03;;;;;;;8.10;5.15;;;9.80;85.30;;;;;;6089689;23;20089;-79
2023/02/05 07:16:29;;;;;;;8.63;5.57;;;9.80;85.50;;;;;;6091689;23;20062;-80
2023/02/05 07:18:56;;;;;;;9.02;5.95;;;9.80;85.30;;;;;;6088899;23;20007;-82
2023/02/05 07:21:22;;;;;;;8.88;6.05;;;9.80;85.10;;;;;;6094872;23;20618;-79
2023/02/05 07:23:48;;;;;;;9.98;6.28;;;9.80;85.10;;;;;;6093360;23;20006;-80
2023/02/05 07:26:15;;;;;;;8.30;5.40;;;9.80;85.00;;;;;;6094945;23;20013;-83
2023/02/05 07:28:41;;;;;;;8.32;5.40;;;9.80;85.00;;;;;;6103577;23;20452;-82
2023/02/05 07:31:10;;;;;;;8.05;5.68;;;9.80;85.00;;;;;;6098259;23;20010;-82
2023/02/05 07:33:36;;;;;;;8.32;5.68;;;9.80;85.00;;;;;;6098684;23;20355;-82
2023/02/05 07:36:07;;;;;;;8.40;5.18;;;9.80;85.10;;;;;;6098360;23;20014;-83
2023/02/05 07:38:33;;;;;;;7.93;5.30;;;9.80;85.10;;;;;;6098754;23;20011;-83
2023/02/05 07:41:03;;;;;;;8.27;5.40;;;9.80;85.10;;;;;;6099196;23;20010;-83
2023/02/05 07:43:28;;;;;;;7.78;5.30;;;9.80;85.00;;;;;;6097765;23;20010;-82
2023/02/05 07:45:58;;;;;;;8.27;5.32;;;9.80;85.00;;;;;;6098168;23;19999;-83
2023/02/05 07:48:24;;;;;;;7.65;5.25;;;9.80;85.10;;;;;;6103291;23;20033;-85
2023/02/05 07:50:50;;;;;;;7.95;5.70;;;9.80;85.10;;;;;;6105130;23;20013;-85
2023/02/05 07:53:16;;;;;;;8.38;5.30;;;9.80;85.10;;;;;;6106501;23;20071;-83
2023/02/05 07:55:41;;;;;;;7.80;5.20;;;9.70;85.10;;;;;;6101080;23;20002;-83
2023/02/05 07:58:06;;;;;;;7.03;5.10;;;9.80;85.20;;;;;;6103413;23;20342;-84
2023/02/05 08:00:32;;;;;;;7.82;5.05;;;9.80;85.20;;;;;;6104966;23;20006;-82
2023/02/05 08:02:57;;;;;;;7.68;5.00;;;9.70;85.20;;;;;;6104246;23;20322;-83
2023/02/05 08:05:23;;;;;;;8.43;5.32;;;9.80;85.30;;;;;;6105017;23;20013;-82
2023/02/05 08:07:48;;;;;;;7.85;5.18;;;9.80;85.20;;;;;;6104117;23;20062;-82
2023/02/05 08:10:14;;;;;;;7.90;5.22;;;9.80;85.20;;;;;;6102022;23;20093;-84
2023/02/05 08:12:40;;;;;;;9.02;5.53;;;9.70;85.10;;;;;;6102379;23;20356;-82
2023/02/05 08:15:06;;;;;;;9.10;6.15;;;9.80;85.20;;;;;;6100953;23;20049;-83
2023/02/05 08:17:31;;;;;;;8.18;5.07;;;9.80;85.30;;;;;;6092871;23;20003;-83
2023/02/05 08:19:58;;;;;;;6.95;4.90;;;9.80;85.20;;;;;;6101565;23;20014;-82
2023/02/05 08:22:24;;;;;;;7.82;5.32;;;9.80;85.20;;;;;;6098261;23;20090;-84
2023/02/05 08:24:49;;;;;;;8.68;5.70;;;9.80;85.30;;;;;;6099167;23;20493;-82
2023/02/05 08:27:15;;;;;;;7.88;5.50;;;9.80;85.30;;;;;;6099156;23;20081;-84
2023/02/05 08:29:40;;;;;;;8.27;5.22;;;9.70;85.20;;;;;;6098736;23;20421;-82
2023/02/05 08:32:06;;;;;;;7.80;5.22;;;9.80;85.30;;;;;;6098607;23;20065;-82
2023/02/05 08:34:33;;;;;;;8.40;5.03;;;9.70;85.20;;;;;;6098042;23;20006;-82
2023/02/05 08:36:58;;;;;;;8.20;5.18;;;9.70;85.20;;;;;;6098171;23;20015;-82
2023/02/05 08:39:24;;;;;;;8.38;5.28;;;9.80;85.30;;;;;;6097745;23;20082;-82
2023/02/05 08:41:50;;;;;;;7.30;5.15;;;9.70;85.20;;;;;;6097009;23;20091;-82
2023/02/05 08:44:15;;;;;;;7.63;5.25;;;9.70;85.20;;;;;;6099241;23;20038;-83
2023/02/05 08:46:41;;;;;;;7.57;4.97;;;9.80;85.20;;;;;;6094044;23;20013;-83
2023/02/05 08:49:06;;;;;;;8.23;5.72;;;9.70;85.20;;;;;;6093758;23;20056;-83
2023/02/05 08:51:34;;;;;;;7.80;5.20;;;9.70;85.20;;;;;;6093810;23;20170;-83
2023/02/05 08:54:00;;;;;;;8.30;5.30;;;9.70;85.20;;;;;;6094444;23;20097;-84
2023/02/05 08:56:25;;;;;;;7.97;5.30;;;9.70;85.20;;;;;;6094494;23;19999;-82
2023/02/05 08:58:51;;;;;;;8.90;5.82;;;9.70;85.20;;;;;;6097085;23;20090;-83
2023/02/05 09:01:17;;;;;;;8.48;5.30;;;9.70;85.20;;;;;;6096279;23;20077;-83
2023/02/05 09:03:43;;;;;;;8.05;5.20;;;9.70;85.20;;;;;;6096710;23;20006;-84
2023/02/05 09:06:11;;;;;;;8.05;5.40;;;9.70;85.20;;;;;;6094868;23;20361;-82
2023/02/05 09:08:37;;;;;;;8.70;5.20;;;9.80;85.30;;;;;;6095329;23;20030;-83
2023/02/05 09:11:03;;;;;;;8.65;5.40;;;9.80;85.30;;;;;;6094841;23;20017;-83
2023/02/05 09:13:29;;;;;;;8.43;5.20;;;9.80;85.30;;;;;;6092829;23;20085;-83
2023/02/05 09:15:55;;;;;;;7.82;5.20;;;9.80;85.30;;;;;;6096819;23;19999;-84
2023/02/05 09:18:21;;;;;;;7.97;4.85;;;9.80;85.30;;;;;;6096330;23;20002;-84
2023/02/05 09:20:48;;;;;;;8.23;5.50;;;9.70;85.30;;;;;;6095390;23;20010;-82
2023/02/05 09:23:16;;;;;;;7.45;4.90;;;9.70;85.30;;;;;;6094378;23;20085;-82
2023/02/05 09:25:42;;;;;;;8.70;5.05;;;9.70;85.30;;;;;;6095194;23;20038;-82
2023/02/05 09:28:10;;;;;;;8.32;4.88;;;9.70;85.30;;;;;;6095430;23;20013;-83
2023/02/05 09:30:37;;;;;;;8.10;5.30;;;9.70;85.30;;;;;;6094950;23;20318;-83
2023/02/05 09:33:03;;;;;;;8.38;5.13;;;9.80;85.30;;;;;;6094408;23;20041;-83
2023/02/05 09:35:30;;;;;;;8.65;5.30;;;9.80;85.30;;;;;;6094416;23;20013;-85
2023/02/05 09:37:55;;;;;;;9.25;5.78;;;9.70;85.20;;;;;;6094043;23;20038;-83
2023/02/05 09:40:23;;;;;;;9.07;5.72;;;9.70;85.20;;;;;;6096090;23;20009;-83
2023/02/05 09:43:16;;;;;;;7.78;5.07;;;9.80;85.20;;;;;;6095083;23;20089;-84
2023/02/05 09:46:02;;;;;;;8.75;5.25;;;9.70;85.20;;;;;;6097064;23;20006;-82
2023/02/05 09:48:48;;;;;;;8.23;5.40;;;9.80;85.20;;;;;;6094422;23;20014;-83
2023/02/05 09:51:17;;;;;;;9.75;5.50;;;9.80;85.20;;;;;;6093676;23;20464;-82
2023/02/05 09:53:47;;;;;;;8.73;5.40;;;9.70;85.20;;;;;;6093775;23;20137;-82
2023/02/05 09:56:16;;;;;;;8.00;5.18;;;9.70;85.10;;;;;;6093039;23;20007;-83
2023/02/05 09:58:48;;;;;;;8.52;5.10;;;9.80;85.10;;;;;;6093224;23;20052;-82
2023/02/05 10:01:28;;;;;;;8.68;5.47;;;9.70;85.10;;;;;;6094550;23;20507;-82
2023/02/05 10:03:59;;;;;;;7.60;5.03;;;9.80;85.10;;;;;;6094510;23;20113;-82
2023/02/05 10:06:59;;;;;;;8.32;4.85;;;9.80;85.10;;;;;;6093939;23;20002;-82
2023/02/05 10:09:39;;;;;;;8.50;5.28;;;9.80;85.10;;;;;;6093801;23;20034;-82
2023/02/05 10:12:22;;;;;;;7.43;5.03;;;9.80;85.00;;;;;;6094349;23;20089;-83
2023/02/05 10:14:57;;;;;;;7.30;5.00;;;9.80;85.10;;;;;;6095485;23;20037;-83
2023/02/05 10:17:54;;;;;;;8.68;5.45;;;9.90;85.10;;;;;;6092388;23;20399;-83
2023/02/05 10:20:33;;;;;;;7.93;5.22;;;9.80;84.90;;;;;;6099425;23;20003;-84
2023/02/05 10:23:26;;;;;;;11.10;5.47;;;9.80;85.00;;;;;;6105028;23;20067;-86
2023/02/05 10:26:16;;;;;;;8.93;5.55;;;9.80;84.80;;;;;;6102614;23;20006;-84
2023/02/05 10:29:20;;;;;;;9.25;5.88;;;9.80;84.90;;;;;;6103789;23;20014;-83
2023/02/05 10:32:14;;;;;;;8.70;5.70;;;9.90;84.80;;;;;;6101986;23;20357;-84
2023/02/05 10:35:17;;;;;;;8.45;5.15;;;9.90;84.80;;;;;;6061931;23;20014;-84
2023/02/05 10:37:51;;;;;;;8.18;5.32;;;9.90;84.80;;;;;;6100595;23;20018;-82
2023/02/05 10:40:30;;;;;;;8.52;5.57;;;9.90;84.80;;;;;;6100624;23;20065;-86
2023/02/05 10:43:24;;;;;;;8.15;5.40;;;9.90;84.90;;;;;;6102482;23;20241;-83
2023/02/05 10:45:51;;;;;;;9.00;5.88;;;9.90;84.80;;;;;;6100272;23;20017;-83
2023/02/05 10:48:34;;;;;;;8.80;5.38;;;9.90;84.90;;;;;;6099515;23;20003;-84
2023/02/05 10:51:04;;;;;;;8.32;5.18;;;9.90;84.80;;;;;;6099418;23;20132;-83
2023/02/05 10:53:31;;;;;;;7.78;4.97;;;9.90;84.90;;;;;;6098756;23;20007;-82
2023/02/05 10:55:58;;;;;;;8.40;5.22;;;9.90;84.90;;;;;;6100632;23;20005;-83
2023/02/05 10:58:47;;;;;;;7.85;5.03;;;9.90;84.90;;;;;;6099029;23;20060;-83
2023/02/05 11:01:19;;;;;;;7.40;5.25;;;10.00;85.00;;;;;;6098386;23;20010;-83
2023/02/05 11:04:04;;;;;;;7.07;4.75;;;9.90;84.90;;;;;;6097671;23;20421;-82
2023/02/05 11:06:36;;;;;;;7.63;5.07;;;10.00;84.90;;;;;;6097179;23;20014;-85
2023/02/05 11:09:23;;;;;;;7.68;4.85;;;10.00;84.70;;;;;;6099193;23;20085;-84
2023/02/05 11:11:57;;;;;;;7.97;4.95;;;10.00;84.60;;;;;;6104730;23;20002;-84
2023/02/05 11:14:39;;;;;;;7.53;5.05;;;10.00;84.70;;;;;;6102637;23;20060;-84
2023/02/05 11:17:14;;;;;;;7.63;5.05;;;10.00;84.80;;;;;;6102349;23;20037;-84
2023/02/05 11:19:39;;;;;;;7.18;4.75;;;10.00;84.80;;;;;;6104763;23;20050;-84
2023/02/05 11:22:05;;;;;;;8.70;5.60;;;10.00;84.80;;;;;;6105068;23;20007;-84
2023/02/05 11:24:38;;;;;;;7.90;5.18;;;10.00;84.80;;;;;;6100450;23;20061;-84
2023/02/05 11:27:27;;;;;;;8.07;5.43;;;9.90;84.80;;;;;;6100216;23;20022;-82
2023/02/05 11:30:02;;;;;;;9.27;5.68;;;10.00;84.80;;;;;;6102471;23;20007;-83
2023/02/05 11:32:35;;;;;;;12.85;5.60;;;9.90;84.70;;;;;;6098517;23;20002;-84
2023/02/05 11:35:29;;;;;;;8.30;5.20;;;9.90;84.60;;;;;;6098908;23;20054;-81
2023/02/05 11:38:04;;;;;;;7.93;5.40;;;9.90;84.70;;;;;;6097705;23;20020;-82
2023/02/05 11:40:31;;;;;;;8.57;5.45;;;9.90;84.70;;;;;;6101096;23;20078;-83
2023/02/05 11:43:04;;;;;;;8.20;5.05;;;9.90;84.70;;;;;;6074267;23;20018;-83
2023/02/05 11:45:31;;;;;;;8.77;5.50;;;9.90;84.70;;;;;;6073776;23;20014;-84
2023/02/05 11:48:01;;;;;;;7.95;5.10;;;9.90;84.80;;;;;;6074173;23;20062;-82
2023/02/05 11:50:28;;;;;;;8.38;5.55;;;9.90;84.70;;;;;;6073128;23;20013;-83
2023/02/05 11:52:55;;;;;;;8.27;5.60;;;9.90;84.90;;;;;;6073470;23;20445;-82
2023/02/05 11:55:39;;;;;;;8.88;5.65;;;9.90;84.80;;;;;;6098450;23;20013;-83
2023/02/05 11:58:17;;;;;;;8.15;5.53;;;9.90;84.80;;;;;;6072907;23;20006;-83
2023/02/05 12:01:02;;;;;;;8.05;5.18;;;9.90;84.90;;;;;;6072033;23;20093;-85
2023/02/05 12:03:31;;;;;;;7.75;5.03;;;9.90;84.90;;;;;;6073416;23;20010;-83
2023/02/05 12:06:18;;;;;;;7.72;5.03;;;9.90;84.90;;;;;;6073822;23;20456;-82
2023/02/05 12:08:50;;;;;;;8.65;5.88;;;9.90;84.90;;;;;;6073344;23;20354;-84
2023/02/05 12:11:59;;;;;;;7.78;5.30;;;9.90;84.80;;;;;;6072591;23;20065;-83
2023/02/05 12:14:41;;;;;;;8.52;5.30;;;9.90;84.90;;;;;;6098880;23;20009;-83
2023/02/05 12:17:15;;;;;;;8.30;5.68;;;9.90;84.90;;;;;;6073619;23;20003;-83
2023/02/05 12:19:49;;;;;;;7.80;5.25;;;9.80;84.90;;;;;;6072491;23;20049;-82
2023/02/05 12:22:40;;;;;;;8.27;5.18;;;9.90;84.90;;;;;;6095456;23;20006;-84
2023/02/05 12:25:14;;;;;;;8.13;5.25;;;9.90;85.00;;;;;;6073296;23;20022;-83
2023/02/05 12:28:09;;;;;;;8.10;5.43;;;9.90;85.00;;;;;;6098886;23;20006;-83
2023/02/05 12:31:04;;;;;;;8.57;5.65;;;9.90;85.00;;;;;;6073304;23;20002;-83
2023/02/05 12:34:15;;;;;;;7.82;5.43;;;9.80;84.90;;;;;;6072830;23;20006;-82
2023/02/05 12:36:47;;;;;;;8.23;5.18;;;9.80;85.00;;;;;;6064288;23;20018;-84
2023/02/05 12:39:42;;;;;;;8.63;5.60;;;9.80;84.90;;;;;;6093261;23;20053;-83
2023/02/05 12:42:39;;;;;;;8.30;5.07;;;9.80;85.00;;;;;;6094753;23;20505;-83
2023/02/05 12:45:33;;;;;;;8.07;5.40;;;9.90;85.00;;;;;;6095756;23;20519;-82
2023/02/05 12:48:33;;;;;;;8.25;5.30;;;9.80;85.00;;;;;;6096067;23;20029;-82
2023/02/05 12:51:01;;;;;;;8.48;5.78;;;9.80;85.00;;;;;;6096858;23;20404;-83
2023/02/05 12:53:51;;;;;;;7.82;5.40;;;9.80;85.00;;;;;;6093645;23;20318;-83
2023/02/05 12:56:52;;;;;;;7.93;5.43;;;9.80;84.90;;;;;;6095918;23;20072;-82
2023/02/05 12:59:46;;;;;;;8.32;5.57;;;9.80;85.00;;;;;;6097067;23;20003;-82
2023/02/05 13:02:30;;;;;;;8.13;5.40;;;9.80;85.00;;;;;;6095907;23;20003;-84
2023/02/05 13:05:20;;;;;;;8.48;5.45;;;9.80;85.00;;;;;;6095845;23;20085;-84
2023/02/05 13:08:02;;;;;;;8.60;5.68;;;9.80;85.00;;;;;;6084298;23;20006;-83
2023/02/05 13:10:56;;;;;;;9.32;6.05;;;9.80;85.00;;;;;;6094988;23;20349;-83
2023/02/05 13:13:30;;;;;;;9.05;6.00;;;9.80;85.00;;;;;;6081482;23;20006;-83
2023/02/05 13:16:10;;;;;;;8.45;5.60;;;9.80;85.00;;;;;;6096729;23;20025;-82
2023/02/05 13:18:45;;;;;;;7.88;5.40;;;9.80;85.10;;;;;;6095648;23;20010;-83
2023/02/05 13:30:18;;;;;;;7.93;5.35;;;9.80;85.10;;;;;;6096865;23;20498;-83